createdAt,value
2023-01-13T00:01:09.804Z,4.28
2023-01-13T00:03:37.731Z,4.43
2023-01-13T00:06:05.565Z,4.75
2023-01-13T00:08:33.372Z,4.50
2023-01-13T00:11:00.566Z,4.63
2023-01-13T00:13:27.865Z,4.60
2023-01-13T00:16:01.893Z,4.47
2023-01-13T00:18:29.562Z,4.28
2023-01-13T00:20:59.738Z,4.38
2023-01-13T00:23:28.171Z,3.70
2023-01-13T00:25:59.006Z,4.10
2023-01-13T00:28:26.467Z,4.15
2023-01-13T00:30:53.798Z,5.20
2023-01-13T00:33:21.178Z,4.53
2023-01-13T00:35:58.096Z,5.53
2023-01-13T00:38:25.616Z,5.30
2023-01-13T00:40:56.556Z,4.32
2023-01-13T00:43:23.888Z,3.78
2023-01-13T00:45:53.995Z,5.72
2023-01-13T00:48:22.160Z,4.68
2023-01-13T00:50:59.397Z,4.82
2023-01-13T00:53:27.286Z,4.43
2023-01-13T00:56:01.667Z,4.32
2023-01-13T00:58:29.183Z,5.50
2023-01-13T01:01:00.141Z,3.97
2023-01-13T01:03:27.713Z,4.22
2023-01-13T01:05:54.888Z,4.82
2023-01-13T01:08:22.157Z,4.20
2023-01-13T01:10:49.329Z,5.25
2023-01-13T01:13:17.420Z,4.13
2023-01-13T01:15:45.115Z,4.47
2023-01-13T01:18:12.352Z,4.40
2023-01-13T01:20:39.573Z,4.63
2023-01-13T01:23:06.790Z,5.75
2023-01-13T01:25:34.024Z,4.05
2023-01-13T01:28:01.288Z,4.63
2023-01-13T01:30:28.599Z,4.30
2023-01-13T01:32:57.302Z,4.60
2023-01-13T01:35:25.006Z,4.82
2023-01-13T01:37:52.223Z,5.30
2023-01-13T01:40:19.544Z,3.80
2023-01-13T01:43:15.785Z,4.88
2023-01-13T01:45:44.080Z,4.05
2023-01-13T01:48:11.941Z,4.20
2023-01-13T01:50:39.533Z,4.85
2023-01-13T01:53:09.641Z,4.80
2023-01-13T01:55:37.035Z,5.55
2023-01-13T01:58:20.971Z,4.60
2023-01-13T02:00:48.533Z,5.25
2023-01-13T02:03:16.915Z,4.55
2023-01-13T02:05:44.185Z,4.60
2023-01-13T02:08:12.859Z,4.40
2023-01-13T02:10:41.834Z,4.85
2023-01-13T02:13:10.725Z,5.32
2023-01-13T02:15:37.873Z,5.45
2023-01-13T02:18:07.994Z,3.97
2023-01-13T02:20:53.937Z,4.45
2023-01-13T02:23:52.071Z,4.97
2023-01-13T02:26:25.365Z,5.97
2023-01-13T02:29:23.949Z,4.43
2023-01-13T02:31:54.366Z,5.32
2023-01-13T02:34:33.991Z,4.85
2023-01-13T02:37:20.947Z,4.63
2023-01-13T02:39:56.615Z,4.88
2023-01-13T02:42:58.204Z,4.55
2023-01-13T02:45:34.547Z,4.50
2023-01-13T02:48:04.134Z,4.28
2023-01-13T02:50:43.764Z,5.60
2023-01-13T02:53:22.800Z,4.65
2023-01-13T02:55:52.289Z,5.40
2023-01-13T02:58:21.180Z,4.00
2023-01-13T03:00:49.345Z,3.55
2023-01-13T03:03:16.665Z,3.97
2023-01-13T03:05:45.365Z,5.32
2023-01-13T03:08:28.024Z,5.15
2023-01-13T03:10:55.252Z,4.95
2023-01-13T03:13:39.243Z,4.38
2023-01-13T03:16:15.843Z,4.53
2023-01-13T03:18:48.570Z,4.25
2023-01-13T03:21:27.991Z,3.45
2023-01-13T03:23:58.222Z,4.25
2023-01-13T03:26:31.339Z,3.92
2023-01-13T03:29:10.898Z,5.22
2023-01-13T03:31:43.690Z,4.25
2023-01-13T03:34:14.033Z,4.80
2023-01-13T03:36:42.474Z,4.63
2023-01-13T03:39:15.135Z,4.25
2023-01-13T03:41:45.402Z,4.18
2023-01-13T03:44:25.295Z,4.03
2023-01-13T03:46:58.863Z,3.78
2023-01-13T03:49:28.627Z,5.07
2023-01-13T03:52:01.391Z,4.13
2023-01-13T03:54:30.668Z,4.00
2023-01-13T03:57:05.866Z,3.70
2023-01-13T03:59:37.505Z,4.35
2023-01-13T04:02:09.190Z,4.40
2023-01-13T04:04:46.799Z,3.67
2023-01-13T04:07:37.652Z,2.90
2023-01-13T04:10:07.028Z,3.13
2023-01-13T04:12:55.713Z,2.67
2023-01-13T04:15:24.675Z,2.35
2023-01-13T04:17:52.556Z,2.47
2023-01-13T04:20:19.886Z,3.47
2023-01-13T04:22:47.237Z,3.10
2023-01-13T04:25:14.491Z,3.55
2023-01-13T04:27:41.782Z,2.47
2023-01-13T04:30:09.426Z,3.00
2023-01-13T04:32:36.672Z,2.92
2023-01-13T04:35:04.056Z,2.75
2023-01-13T04:37:31.307Z,2.58
2023-01-13T04:39:58.607Z,2.25
2023-01-13T04:42:25.854Z,2.78
2023-01-13T04:44:53.179Z,3.05
2023-01-13T04:47:20.529Z,3.63
2023-01-13T04:49:47.818Z,2.25
2023-01-13T04:52:15.151Z,2.85
2023-01-13T04:54:42.448Z,3.33
2023-01-13T04:57:09.753Z,2.60
2023-01-13T04:59:37.050Z,1.83
2023-01-13T05:02:04.296Z,2.72
2023-01-13T05:04:31.608Z,2.60
2023-01-13T05:06:58.909Z,2.42
2023-01-13T05:09:26.164Z,2.58
2023-01-13T05:12:12.113Z,2.05
2023-01-13T05:14:58.030Z,2.88
2023-01-13T05:17:26.040Z,2.75
2023-01-13T05:19:53.281Z,3.35
2023-01-13T05:22:39.079Z,3.00
2023-01-13T05:25:21.561Z,3.20
2023-01-13T05:27:53.435Z,2.75
2023-01-13T05:30:24.653Z,3.00
2023-01-13T05:32:51.898Z,3.47
2023-01-13T05:35:19.633Z,3.13
2023-01-13T05:37:47.410Z,2.80
2023-01-13T05:40:34.803Z,3.40
2023-01-13T05:43:22.112Z,2.53
2023-01-13T05:45:59.256Z,3.17
2023-01-13T05:48:30.078Z,3.25
2023-01-13T05:50:57.825Z,3.47
2023-01-13T05:53:25.434Z,2.92
2023-01-13T05:55:53.295Z,2.92
2023-01-13T05:58:21.524Z,3.92
2023-01-13T06:00:48.954Z,3.08
2023-01-13T06:03:16.732Z,3.08
2023-01-13T06:05:43.989Z,3.38
2023-01-13T06:08:11.253Z,2.90
2023-01-13T06:10:38.464Z,2.65
2023-01-13T06:13:06.217Z,3.75
2023-01-13T06:15:33.522Z,3.85
2023-01-13T06:18:02.548Z,2.63
2023-01-13T06:20:29.797Z,3.97
2023-01-13T06:22:57.100Z,3.47
2023-01-13T06:25:31.125Z,3.60
2023-01-13T06:27:59.682Z,3.20
2023-01-13T06:30:28.709Z,4.07
2023-01-13T06:32:59.495Z,2.92
2023-01-13T06:35:29.591Z,4.07
2023-01-13T06:37:58.614Z,3.08
2023-01-13T06:40:26.048Z,4.03
2023-01-13T06:43:16.108Z,3.13
2023-01-13T06:46:04.229Z,3.13
2023-01-13T06:48:34.153Z,2.70
2023-01-13T06:51:01.908Z,3.35
2023-01-13T06:53:29.225Z,3.75
2023-01-13T06:55:56.573Z,3.72
2023-01-13T06:58:23.943Z,3.92
2023-01-13T07:00:51.646Z,3.05
2023-01-13T07:03:19.574Z,4.35
2023-01-13T07:05:52.452Z,3.60
2023-01-13T07:08:19.725Z,4.78
2023-01-13T07:10:47.027Z,3.50
2023-01-13T07:13:33.019Z,4.32
2023-01-13T07:16:01.638Z,3.97
2023-01-13T07:18:31.504Z,3.83
2023-01-13T07:21:03.063Z,4.20
2023-01-13T07:23:35.385Z,4.07
2023-01-13T07:26:02.716Z,3.78
2023-01-13T07:28:30.936Z,2.90
2023-01-13T07:30:58.577Z,2.40
2023-01-13T07:33:25.868Z,2.63
2023-01-13T07:35:57.541Z,3.38
2023-01-13T07:38:25.046Z,3.78
2023-01-13T07:40:52.256Z,3.40
2023-01-13T07:43:34.865Z,3.72
2023-01-13T07:46:06.159Z,3.22
2023-01-13T07:48:34.638Z,3.80
2023-01-13T07:51:02.611Z,4.15
2023-01-13T07:53:30.039Z,4.35
2023-01-13T07:55:57.948Z,2.75
2023-01-13T07:58:25.940Z,3.20
2023-01-13T08:00:53.810Z,3.70
2023-01-13T08:03:21.410Z,3.17
2023-01-13T08:05:49.007Z,3.40
2023-01-13T08:08:16.382Z,3.08
2023-01-13T08:10:44.959Z,4.72
2023-01-13T08:13:22.730Z,3.47
2023-01-13T08:15:51.303Z,4.18
2023-01-13T08:18:21.236Z,4.10
2023-01-13T08:20:55.132Z,4.80
2023-01-13T08:23:23.547Z,4.38
2023-01-13T08:25:50.795Z,5.00
2023-01-13T08:28:18.208Z,4.75
2023-01-13T08:30:45.566Z,3.50
2023-01-13T08:33:13.419Z,3.08
2023-01-13T08:35:41.795Z,3.75
2023-01-13T08:38:09.511Z,3.05
2023-01-13T08:40:36.825Z,3.72
2023-01-13T08:43:04.318Z,3.95
2023-01-13T08:45:31.659Z,3.85
2023-01-13T08:47:59.477Z,4.32
2023-01-13T08:50:26.748Z,3.53
2023-01-13T08:52:54.079Z,3.72
2023-01-13T08:55:21.515Z,3.83
2023-01-13T08:57:48.809Z,3.30
2023-01-13T09:00:17.216Z,3.40
2023-01-13T09:02:44.752Z,3.95
2023-01-13T09:05:12.172Z,3.60
2023-01-13T09:07:39.779Z,3.08
2023-01-13T09:10:09.585Z,4.07
2023-01-13T09:12:55.531Z,3.10
2023-01-13T09:15:22.832Z,3.47
2023-01-13T09:17:50.157Z,3.33
2023-01-13T09:20:17.716Z,3.25
2023-01-13T09:22:45.066Z,3.90
2023-01-13T09:25:12.762Z,3.38
2023-01-13T09:27:40.056Z,3.33
2023-01-13T09:30:07.701Z,3.55
2023-01-13T09:32:35.032Z,3.03
2023-01-13T09:35:02.716Z,3.80
2023-01-13T09:37:34.356Z,2.95
2023-01-13T09:40:02.247Z,3.38
2023-01-13T09:43:06.647Z,4.28
2023-01-13T09:45:40.381Z,4.30
2023-01-13T09:48:10.846Z,3.53
2023-01-13T09:50:41.134Z,3.13
2023-01-13T09:53:12.817Z,3.67
2023-01-13T09:55:40.260Z,3.55
2023-01-13T09:58:16.882Z,3.42
2023-01-13T10:00:56.508Z,3.30
2023-01-13T10:03:27.817Z,3.42
2023-01-13T10:06:15.337Z,3.58
2023-01-13T10:08:43.703Z,3.28
2023-01-13T10:11:34.139Z,3.50
2023-01-13T10:14:13.843Z,3.80
2023-01-13T10:17:00.138Z,2.95
2023-01-13T10:19:42.233Z,3.53
2023-01-13T10:22:31.770Z,3.67
2023-01-13T10:25:20.320Z,3.03
2023-01-13T10:27:50.121Z,3.47
2023-01-13T10:30:31.638Z,3.72
2023-01-13T10:33:01.172Z,3.08
2023-01-13T10:35:47.264Z,3.20
2023-01-13T10:38:33.335Z,3.58
2023-01-13T10:41:20.511Z,3.47
2023-01-13T10:44:05.935Z,2.90
2023-01-13T10:46:35.454Z,3.75
2023-01-13T10:49:04.207Z,3.60
2023-01-13T10:51:37.535Z,3.47
2023-01-13T10:54:14.031Z,3.65
2023-01-13T10:56:42.514Z,2.60
2023-01-13T10:59:22.455Z,2.53
2023-01-13T11:01:58.738Z,4.10
2023-01-13T11:04:30.767Z,3.05
2023-01-13T11:06:58.687Z,2.78
2023-01-13T11:09:26.662Z,3.28
2023-01-13T11:11:57.432Z,2.47
2023-01-13T11:14:33.594Z,2.50
2023-01-13T11:17:02.741Z,3.22
2023-01-13T11:19:31.840Z,3.53
2023-01-13T11:22:03.584Z,2.80
2023-01-13T11:24:36.367Z,3.70
2023-01-13T11:27:12.940Z,4.18
2023-01-13T11:29:55.531Z,2.50
2023-01-13T11:32:24.022Z,2.85
2023-01-13T11:35:02.822Z,3.72
2023-01-13T11:37:33.082Z,2.63
2023-01-13T11:40:19.681Z,3.03
2023-01-13T11:42:53.780Z,2.72
2023-01-13T11:45:26.893Z,3.03
2023-01-13T11:47:57.604Z,2.97
2023-01-13T11:50:48.215Z,3.45
2023-01-13T11:53:18.476Z,2.83
2023-01-13T11:56:04.533Z,3.22
2023-01-13T11:58:33.772Z,3.53
2023-01-13T12:01:22.290Z,2.70
2023-01-13T12:04:10.968Z,2.80
2023-01-13T12:06:43.505Z,3.40
2023-01-13T12:09:24.116Z,2.42
2023-01-13T12:12:20.388Z,3.23
2023-01-13T12:14:50.691Z,3.58
2023-01-13T12:17:26.935Z,2.35
2023-01-13T12:19:54.510Z,2.78
2023-01-13T12:22:27.256Z,2.60
2023-01-13T12:25:14.017Z,2.80
2023-01-13T12:27:50.107Z,2.88
2023-01-13T12:30:26.394Z,2.45
2023-01-13T12:32:58.247Z,2.78
2023-01-13T12:35:25.551Z,2.60
2023-01-13T12:37:55.861Z,2.30
2023-01-13T12:40:41.960Z,2.78
2023-01-13T12:43:38.346Z,2.78
2023-01-13T12:46:23.648Z,2.50
2023-01-13T12:48:57.241Z,2.83
2023-01-13T12:51:38.311Z,3.20
2023-01-13T12:54:24.323Z,2.80
2023-01-13T12:56:52.989Z,3.03
2023-01-13T12:59:20.319Z,2.30
2023-01-13T13:01:48.719Z,3.00
2023-01-13T13:04:42.003Z,2.20
2023-01-13T13:07:10.617Z,2.75
2023-01-13T13:09:43.396Z,2.42
2023-01-13T13:12:48.028Z,2.88
2023-01-13T13:15:44.850Z,2.08
2023-01-13T13:18:18.851Z,2.78
2023-01-13T13:21:02.919Z,2.30
2023-01-13T13:23:37.152Z,3.08
2023-01-13T13:26:20.259Z,3.30
2023-01-13T13:28:57.366Z,2.28
2023-01-13T13:31:33.968Z,2.03
2023-01-13T13:34:07.274Z,1.95
2023-01-13T13:37:10.300Z,2.20
2023-01-13T13:40:00.861Z,2.30
2023-01-13T13:42:48.090Z,2.47
2023-01-13T13:45:40.307Z,2.30
2023-01-13T13:48:20.043Z,2.58
2023-01-13T13:51:01.723Z,2.38
2023-01-13T13:53:30.450Z,2.17
2023-01-13T13:56:02.007Z,2.97
2023-01-13T13:58:30.635Z,2.50
2023-01-13T14:00:58.202Z,2.50
2023-01-13T14:03:27.039Z,3.08
2023-01-13T14:05:59.507Z,3.22
2023-01-13T14:08:27.829Z,3.95
2023-01-13T14:10:55.346Z,2.85
2023-01-13T14:13:40.801Z,2.55
2023-01-13T14:16:11.455Z,2.70
2023-01-13T14:18:56.829Z,2.78
2023-01-13T14:21:28.644Z,3.13
2023-01-13T14:24:20.561Z,2.80
2023-01-13T14:26:51.882Z,2.75
2023-01-13T14:29:24.355Z,3.30
2023-01-13T14:31:52.743Z,3.60
2023-01-13T14:34:31.068Z,3.80
2023-01-13T14:37:00.586Z,4.05
2023-01-13T14:39:35.116Z,2.38
2023-01-13T14:42:03.090Z,2.83
2023-01-13T14:44:31.996Z,2.83
2023-01-13T14:47:00.857Z,2.88
2023-01-13T14:49:39.844Z,2.67
2023-01-13T14:52:13.123Z,3.08
2023-01-13T14:54:45.465Z,3.42
2023-01-13T14:57:27.558Z,5.53
2023-01-13T15:00:13.635Z,3.80
2023-01-13T15:02:41.187Z,2.60
2023-01-13T15:05:20.546Z,2.25
2023-01-13T15:08:17.672Z,2.70
2023-01-13T15:10:55.428Z,3.92
2023-01-13T15:13:26.271Z,2.70
2023-01-13T15:15:57.895Z,3.87
2023-01-13T15:18:25.172Z,2.47
2023-01-13T15:20:52.738Z,2.92
2023-01-13T15:23:20.575Z,3.30
2023-01-13T15:25:48.465Z,2.88
2023-01-13T15:28:21.099Z,2.20
2023-01-13T15:30:49.420Z,3.13
2023-01-13T15:33:16.837Z,3.00
2023-01-13T15:35:48.140Z,3.28
2023-01-13T15:38:17.429Z,3.28
2023-01-13T15:40:44.723Z,3.17
2023-01-13T15:43:38.417Z,2.50
2023-01-13T15:46:29.162Z,3.17
2023-01-13T15:48:57.682Z,3.15
2023-01-13T15:51:25.927Z,2.70
2023-01-13T15:53:53.259Z,2.95
2023-01-13T15:56:26.470Z,3.25
2023-01-13T15:58:53.841Z,3.22
2023-01-13T16:01:21.929Z,2.97
2023-01-13T16:03:49.360Z,3.40
2023-01-13T16:06:19.002Z,3.22
2023-01-13T16:08:46.716Z,2.88
2023-01-13T16:11:14.205Z,2.25
2023-01-13T16:13:41.441Z,2.95
2023-01-13T16:16:18.651Z,2.95
2023-01-13T16:18:46.031Z,3.10
2023-01-13T16:21:14.140Z,3.00
2023-01-13T16:23:41.571Z,3.30
2023-01-13T16:26:17.343Z,3.00
2023-01-13T16:28:44.650Z,2.85
2023-01-13T16:31:19.642Z,3.30
2023-01-13T16:33:47.236Z,3.15
2023-01-13T16:36:19.508Z,2.58
2023-01-13T16:38:47.208Z,2.65
2023-01-13T16:41:14.576Z,2.95
2023-01-13T16:43:41.833Z,3.35
2023-01-13T16:46:28.444Z,3.20
2023-01-13T16:48:57.039Z,2.72
2023-01-13T16:51:24.766Z,2.47
2023-01-13T16:53:52.112Z,2.53
2023-01-13T16:56:22.448Z,1.98
2023-01-13T16:58:50.284Z,3.00
2023-01-13T17:01:23.393Z,1.60
2023-01-13T17:03:51.591Z,2.58
2023-01-13T17:06:20.692Z,2.22
2023-01-13T17:08:47.990Z,3.03
2023-01-13T17:11:15.367Z,2.50
2023-01-13T17:13:42.652Z,2.92
2023-01-13T17:16:15.751Z,3.08
2023-01-13T17:18:43.105Z,2.05
2023-01-13T17:21:10.336Z,1.50
2023-01-13T17:23:37.623Z,2.10
2023-01-13T17:26:04.952Z,2.50
2023-01-13T17:28:32.188Z,2.28
2023-01-13T17:30:59.522Z,5.45
2023-01-13T17:33:26.796Z,2.47
2023-01-13T17:35:54.066Z,5.50
2023-01-13T17:38:21.373Z,5.32
2023-01-13T17:40:48.632Z,5.30
2023-01-13T17:43:15.894Z,3.47
2023-01-13T17:45:43.173Z,2.83
2023-01-13T17:48:10.485Z,1.73
2023-01-13T17:50:38.339Z,3.05
2023-01-13T17:53:05.620Z,2.83
2023-01-13T17:55:32.905Z,2.20
2023-01-13T17:58:00.203Z,1.63
2023-01-13T18:00:29.693Z,2.10
2023-01-13T18:02:57.017Z,3.38
2023-01-13T18:05:24.365Z,2.42
2023-01-13T18:07:51.841Z,3.30
2023-01-13T18:10:19.129Z,3.13
2023-01-13T18:12:46.358Z,3.30
2023-01-13T18:15:13.788Z,3.28
2023-01-13T18:17:41.104Z,2.90
2023-01-13T18:20:27.126Z,2.53
2023-01-13T18:23:12.871Z,2.63
2023-01-13T18:25:59.415Z,2.20
2023-01-13T18:28:26.659Z,2.78
2023-01-13T18:30:53.914Z,2.63
2023-01-13T18:33:21.202Z,2.50
2023-01-13T18:35:48.436Z,2.53
2023-01-13T18:38:26.111Z,2.25
2023-01-13T18:40:53.334Z,2.25
2023-01-13T18:43:20.661Z,2.55
2023-01-13T18:45:50.595Z,2.70
2023-01-13T18:48:18.247Z,2.60
2023-01-13T18:50:45.503Z,3.17
2023-01-13T18:53:12.755Z,2.40
2023-01-13T18:55:40.064Z,2.50
2023-01-13T18:58:07.525Z,2.83
2023-01-13T19:00:37.405Z,2.28
2023-01-13T19:05:34.247Z,2.42
2023-01-13T19:08:01.558Z,2.38
2023-01-13T19:10:32.102Z,2.08
2023-01-13T19:12:59.438Z,2.42
2023-01-13T19:15:26.745Z,3.20
2023-01-13T19:17:53.983Z,2.63
2023-01-13T19:20:22.388Z,3.17
2023-01-13T19:22:54.224Z,2.97
2023-01-13T19:25:21.952Z,2.88
2023-01-13T19:27:49.211Z,2.35
2023-01-13T19:30:17.388Z,2.03
2023-01-13T19:32:44.750Z,1.98
2023-01-13T19:35:13.226Z,2.53
2023-01-13T19:37:40.868Z,2.55
2023-01-13T19:40:09.689Z,2.30
2023-01-13T19:42:55.748Z,2.97
2023-01-13T19:45:33.858Z,2.60
2023-01-13T19:48:05.864Z,3.28
2023-01-13T19:50:36.258Z,2.72
2023-01-13T19:53:03.618Z,3.00
2023-01-13T19:55:31.900Z,2.17
2023-01-13T19:57:59.421Z,3.15
2023-01-13T20:00:26.717Z,2.40
2023-01-13T20:02:56.698Z,2.40
2023-01-13T20:05:25.979Z,2.50
2023-01-13T20:07:53.918Z,2.10
2023-01-13T20:10:22.587Z,2.47
2023-01-13T20:12:49.881Z,2.58
2023-01-13T20:15:17.208Z,2.88
2023-01-13T20:17:44.839Z,2.50
2023-01-13T20:20:12.235Z,2.47
2023-01-13T20:22:40.112Z,2.60
2023-01-13T20:25:07.962Z,3.13
2023-01-13T20:27:35.306Z,3.17
2023-01-13T20:30:02.627Z,1.92
2023-01-13T20:32:30.208Z,2.75
2023-01-13T20:34:57.503Z,2.92
2023-01-13T20:37:24.919Z,2.78
2023-01-13T20:39:52.204Z,2.83
2023-01-13T20:42:38.036Z,2.95
2023-01-13T20:45:05.525Z,1.88
2023-01-13T20:47:32.929Z,1.75
2023-01-13T20:50:00.152Z,2.45
2023-01-13T20:52:28.837Z,3.05
2023-01-13T20:54:56.288Z,3.47
2023-01-13T20:57:23.956Z,3.15
2023-01-13T20:59:51.350Z,2.88
2023-01-13T21:02:20.212Z,3.40
2023-01-13T21:04:47.449Z,2.78
2023-01-13T21:07:14.982Z,3.35
2023-01-13T21:09:42.318Z,2.83
2023-01-13T21:12:32.826Z,4.13
2023-01-13T21:15:18.417Z,3.45
2023-01-13T21:18:04.651Z,2.88
2023-01-13T21:20:33.575Z,2.75
2023-01-13T21:23:02.069Z,2.45
2023-01-13T21:25:29.577Z,2.92
2023-01-13T21:28:07.347Z,3.90
2023-01-13T21:30:35.381Z,3.35
2023-01-13T21:33:04.233Z,2.75
2023-01-13T21:35:31.690Z,2.90
2023-01-13T21:37:59.106Z,2.97
2023-01-13T21:40:26.366Z,2.78
2023-01-13T21:43:12.162Z,3.45
2023-01-13T21:45:58.608Z,2.58
2023-01-13T21:48:25.908Z,2.53
2023-01-13T21:50:53.314Z,2.72
2023-01-13T21:53:20.593Z,3.08
2023-01-13T21:55:52.333Z,2.60
2023-01-13T21:58:19.577Z,2.75
2023-01-13T22:00:49.222Z,2.30
2023-01-13T22:03:18.628Z,3.15
2023-01-13T22:05:46.551Z,3.47
2023-01-13T22:08:13.884Z,3.40
2023-01-13T22:10:57.136Z,3.13
2023-01-13T22:13:43.506Z,2.50
2023-01-13T22:16:10.901Z,2.78
2023-01-13T22:18:38.439Z,2.40
2023-01-13T22:21:05.786Z,3.45
2023-01-13T22:23:33.130Z,2.92
2023-01-13T22:26:04.122Z,3.55
2023-01-13T22:28:40.299Z,3.38
2023-01-13T22:31:12.082Z,4.90
2023-01-13T22:33:39.689Z,4.68
2023-01-13T22:36:07.854Z,3.25
2023-01-13T22:38:35.231Z,4.00
2023-01-13T22:41:03.608Z,3.90
2023-01-13T22:43:31.319Z,3.78
2023-01-13T22:46:03.583Z,3.38
2023-01-13T22:48:31.136Z,4.60
2023-01-13T22:51:04.286Z,2.95
2023-01-13T22:53:31.596Z,2.97
2023-01-13T22:55:59.332Z,3.35
2023-01-13T22:58:26.680Z,2.33
2023-01-13T23:00:54.904Z,3.15
2023-01-13T23:03:22.922Z,2.90
2023-01-13T23:05:56.034Z,3.47
2023-01-13T23:08:23.361Z,3.88
2023-01-13T23:10:50.676Z,4.13
2023-01-13T23:13:17.976Z,3.10
2023-01-13T23:15:45.261Z,2.80
2023-01-13T23:18:12.477Z,1.98
2023-01-13T23:20:39.741Z,3.10
2023-01-13T23:23:06.958Z,3.25
2023-01-13T23:25:34.244Z,3.10
2023-01-13T23:28:01.489Z,3.58
2023-01-13T23:30:28.837Z,3.45
2023-01-13T23:32:56.123Z,3.67
2023-01-13T23:35:23.414Z,3.05
2023-01-13T23:37:50.675Z,3.15
2023-01-13T23:40:17.979Z,2.92
2023-01-13T23:42:45.213Z,2.78
2023-01-13T23:45:12.517Z,3.22
2023-01-13T23:47:39.910Z,3.38
2023-01-13T23:50:07.332Z,2.47
2023-01-13T23:52:34.579Z,3.65
2023-01-13T23:55:02.519Z,2.92
2023-01-13T23:57:29.814Z,2.70
2023-01-13T23:59:57.354Z,3.45
